sensor_id;sensor_type;location;lat;lon;timestamp;P1;durP1;ratioP1;P2;durP2;ratioP2
12088;SDS011;6107;49.078;8.578;2024-01-30T00:00:04;14.48;;;6.10;;
12088;SDS011;6107;49.078;8.578;2024-01-30T00:02:31;12.93;;;6.45;;
12088;SDS011;6107;49.078;8.578;2024-01-30T00:04:57;15.60;;;6.60;;
12088;SDS011;6107;49.078;8.578;2024-01-30T00:07:22;12.80;;;6.35;;
12088;SDS011;6107;49.078;8.578;2024-01-30T00:09:48;10.77;;;5.88;;
12088;SDS011;6107;49.078;8.578;2024-01-30T00:12:14;12.63;;;6.05;;
12088;SDS011;6107;49.078;8.578;2024-01-30T00:14:41;12.10;;;6.07;;
12088;SDS011;6107;49.078;8.578;2024-01-30T00:17:08;12.27;;;6.35;;
12088;SDS011;6107;49.078;8.578;2024-01-30T00:19:34;12.93;;;6.47;;
12088;SDS011;6107;49.078;8.578;2024-01-30T00:22:00;14.35;;;6.10;;
12088;SDS011;6107;49.078;8.578;2024-01-30T00:24:25;18.40;;;6.47;;
12088;SDS011;6107;49.078;8.578;2024-01-30T00:26:51;13.20;;;6.32;;
12088;SDS011;6107;49.078;8.578;2024-01-30T00:29:17;19.45;;;6.80;;
12088;SDS011;6107;49.078;8.578;2024-01-30T00:31:44;13.43;;;6.75;;
12088;SDS011;6107;49.078;8.578;2024-01-30T00:34:10;13.02;;;6.35;;
12088;SDS011;6107;49.078;8.578;2024-01-30T00:36:36;11.20;;;5.40;;
12088;SDS011;6107;49.078;8.578;2024-01-30T00:39:02;12.48;;;5.90;;
12088;SDS011;6107;49.078;8.578;2024-01-30T00:41:31;14.75;;;6.13;;
12088;SDS011;6107;49.078;8.578;2024-01-30T00:43:57;11.52;;;6.03;;
12088;SDS011;6107;49.078;8.578;2024-01-30T00:46:22;11.73;;;5.90;;
12088;SDS011;6107;49.078;8.578;2024-01-30T00:48:48;14.00;;;5.57;;
12088;SDS011;6107;49.078;8.578;2024-01-30T00:51:14;10.40;;;5.75;;
12088;SDS011;6107;49.078;8.578;2024-01-30T00:53:40;10.80;;;6.07;;
12088;SDS011;6107;49.078;8.578;2024-01-30T00:56:06;13.40;;;5.82;;
12088;SDS011;6107;49.078;8.578;2024-01-30T00:58:32;12.10;;;5.70;;
12088;SDS011;6107;49.078;8.578;2024-01-30T01:00:58;12.10;;;5.85;;
12088;SDS011;6107;49.078;8.578;2024-01-30T01:03:24;11.93;;;5.95;;
12088;SDS011;6107;49.078;8.578;2024-01-30T01:05:50;14.77;;;5.82;;
12088;SDS011;6107;49.078;8.578;2024-01-30T01:08:15;11.52;;;6.00;;
12088;SDS011;6107;49.078;8.578;2024-01-30T01:10:41;12.18;;;5.55;;
12088;SDS011;6107;49.078;8.578;2024-01-30T01:13:07;13.20;;;6.00;;
12088;SDS011;6107;49.078;8.578;2024-01-30T01:15:32;13.68;;;5.85;;
12088;SDS011;6107;49.078;8.578;2024-01-30T01:17:58;13.68;;;5.55;;
12088;SDS011;6107;49.078;8.578;2024-01-30T01:20:23;8.65;;;4.72;;
12088;SDS011;6107;49.078;8.578;2024-01-30T01:22:49;10.63;;;5.18;;
12088;SDS011;6107;49.078;8.578;2024-01-30T01:25:14;9.38;;;5.10;;
12088;SDS011;6107;49.078;8.578;2024-01-30T01:27:40;11.00;;;6.03;;
12088;SDS011;6107;49.078;8.578;2024-01-30T01:30:08;14.80;;;5.68;;
12088;SDS011;6107;49.078;8.578;2024-01-30T01:32:34;13.95;;;5.85;;
12088;SDS011;6107;49.078;8.578;2024-01-30T01:35:01;12.20;;;6.20;;
12088;SDS011;6107;49.078;8.578;2024-01-30T01:37:27;10.55;;;5.75;;
12088;SDS011;6107;49.078;8.578;2024-01-30T01:39:53;11.50;;;5.40;;
12088;SDS011;6107;49.078;8.578;2024-01-30T01:42:18;16.35;;;6.15;;
12088;SDS011;6107;49.078;8.578;2024-01-30T01:44:44;12.85;;;5.97;;
12088;SDS011;6107;49.078;8.578;2024-01-30T01:47:09;11.43;;;5.72;;
12088;SDS011;6107;49.078;8.578;2024-01-30T01:49:35;12.13;;;6.38;;
12088;SDS011;6107;49.078;8.578;2024-01-30T01:52:01;13.75;;;6.00;;
12088;SDS011;6107;49.078;8.578;2024-01-30T01:54:27;13.77;;;5.90;;
12088;SDS011;6107;49.078;8.578;2024-01-30T01:56:54;12.88;;;5.43;;
12088;SDS011;6107;49.078;8.578;2024-01-30T01:59:20;12.48;;;5.63;;
12088;SDS011;6107;49.078;8.578;2024-01-30T02:01:47;14.48;;;6.32;;
12088;SDS011;6107;49.078;8.578;2024-01-30T02:04:16;12.40;;;6.20;;
12088;SDS011;6107;49.078;8.578;2024-01-30T02:06:42;13.10;;;5.85;;
12088;SDS011;6107;49.078;8.578;2024-01-30T02:09:08;9.55;;;5.68;;
12088;SDS011;6107;49.078;8.578;2024-01-30T02:11:34;12.90;;;5.30;;
12088;SDS011;6107;49.078;8.578;2024-01-30T02:14:03;10.55;;;5.25;;
12088;SDS011;6107;49.078;8.578;2024-01-30T02:16:29;14.30;;;5.22;;
12088;SDS011;6107;49.078;8.578;2024-01-30T02:18:55;10.20;;;5.55;;
12088;SDS011;6107;49.078;8.578;2024-01-30T02:21:21;13.90;;;5.60;;
12088;SDS011;6107;49.078;8.578;2024-01-30T02:23:46;11.00;;;5.22;;
12088;SDS011;6107;49.078;8.578;2024-01-30T02:26:13;8.93;;;5.15;;
12088;SDS011;6107;49.078;8.578;2024-01-30T02:28:39;16.95;;;5.57;;
12088;SDS011;6107;49.078;8.578;2024-01-30T02:31:05;10.35;;;4.93;;
12088;SDS011;6107;49.078;8.578;2024-01-30T02:33:30;12.88;;;4.72;;
12088;SDS011;6107;49.078;8.578;2024-01-30T02:35:56;15.82;;;5.43;;
12088;SDS011;6107;49.078;8.578;2024-01-30T02:38:22;9.15;;;4.50;;
12088;SDS011;6107;49.078;8.578;2024-01-30T02:40:48;8.27;;;4.57;;
12088;SDS011;6107;49.078;8.578;2024-01-30T02:43:15;9.05;;;4.65;;
12088;SDS011;6107;49.078;8.578;2024-01-30T02:45:41;17.13;;;5.68;;
12088;SDS011;6107;49.078;8.578;2024-01-30T02:48:07;10.23;;;4.57;;
12088;SDS011;6107;49.078;8.578;2024-01-30T02:50:33;9.95;;;5.07;;
12088;SDS011;6107;49.078;8.578;2024-01-30T02:52:58;9.50;;;4.75;;
12088;SDS011;6107;49.078;8.578;2024-01-30T02:55:24;11.20;;;4.97;;
12088;SDS011;6107;49.078;8.578;2024-01-30T02:57:50;11.00;;;4.82;;
12088;SDS011;6107;49.078;8.578;2024-01-30T03:00:15;9.82;;;4.93;;
12088;SDS011;6107;49.078;8.578;2024-01-30T03:02:41;9.32;;;4.97;;
12088;SDS011;6107;49.078;8.578;2024-01-30T03:05:07;12.90;;;5.00;;
12088;SDS011;6107;49.078;8.578;2024-01-30T03:07:33;13.52;;;5.00;;
12088;SDS011;6107;49.078;8.578;2024-01-30T03:09:59;9.73;;;5.20;;
12088;SDS011;6107;49.078;8.578;2024-01-30T03:12:24;8.63;;;4.97;;
12088;SDS011;6107;49.078;8.578;2024-01-30T03:14:50;13.77;;;4.68;;
12088;SDS011;6107;49.078;8.578;2024-01-30T03:17:16;7.72;;;4.57;;
12088;SDS011;6107;49.078;8.578;2024-01-30T03:19:41;12.60;;;5.07;;
12088;SDS011;6107;49.078;8.578;2024-01-30T03:22:07;11.20;;;5.13;;
12088;SDS011;6107;49.078;8.578;2024-01-30T03:24:32;8.82;;;4.70;;
12088;SDS011;6107;49.078;8.578;2024-01-30T03:26:58;8.93;;;4.47;;
12088;SDS011;6107;49.078;8.578;2024-01-30T03:29:24;9.88;;;4.95;;
12088;SDS011;6107;49.078;8.578;2024-01-30T03:31:49;16.00;;;5.45;;
12088;SDS011;6107;49.078;8.578;2024-01-30T03:34:15;9.77;;;4.70;;
12088;SDS011;6107;49.078;8.578;2024-01-30T03:36:41;13.93;;;5.78;;
12088;SDS011;6107;49.078;8.578;2024-01-30T03:39:06;8.70;;;4.90;;
12088;SDS011;6107;49.078;8.578;2024-01-30T03:41:32;9.70;;;5.10;;
12088;SDS011;6107;49.078;8.578;2024-01-30T03:43:57;13.10;;;4.80;;
12088;SDS011;6107;49.078;8.578;2024-01-30T03:46:23;9.52;;;4.90;;
12088;SDS011;6107;49.078;8.578;2024-01-30T03:48:49;13.90;;;5.20;;
12088;SDS011;6107;49.078;8.578;2024-01-30T03:51:15;10.48;;;4.65;;
12088;SDS011;6107;49.078;8.578;2024-01-30T03:53:43;9.40;;;4.43;;
12088;SDS011;6107;49.078;8.578;2024-01-30T03:56:11;10.38;;;4.93;;
12088;SDS011;6107;49.078;8.578;2024-01-30T03:58:38;9.88;;;5.18;;
12088;SDS011;6107;49.078;8.578;2024-01-30T04:01:05;9.90;;;5.05;;
12088;SDS011;6107;49.078;8.578;2024-01-30T04:03:31;8.85;;;4.97;;
12088;SDS011;6107;49.078;8.578;2024-01-30T04:05:56;8.13;;;4.35;;
12088;SDS011;6107;49.078;8.578;2024-01-30T04:08:22;10.48;;;4.65;;
12088;SDS011;6107;49.078;8.578;2024-01-30T04:10:48;10.65;;;5.10;;
12088;SDS011;6107;49.078;8.578;2024-01-30T04:13:13;8.55;;;4.70;;
12088;SDS011;6107;49.078;8.578;2024-01-30T04:15:39;9.48;;;4.38;;
12088;SDS011;6107;49.078;8.578;2024-01-30T04:18:05;9.65;;;4.82;;
12088;SDS011;6107;49.078;8.578;2024-01-30T04:20:31;10.25;;;4.72;;
12088;SDS011;6107;49.078;8.578;2024-01-30T04:22:56;9.02;;;4.57;;
12088;SDS011;6107;49.078;8.578;2024-01-30T04:25:22;9.15;;;4.10;;
12088;SDS011;6107;49.078;8.578;2024-01-30T04:27:48;9.68;;;4.65;;
12088;SDS011;6107;49.078;8.578;2024-01-30T04:30:13;11.40;;;4.90;;
12088;SDS011;6107;49.078;8.578;2024-01-30T04:32:39;11.80;;;4.68;;
12088;SDS011;6107;49.078;8.578;2024-01-30T04:35:05;10.73;;;4.22;;
12088;SDS011;6107;49.078;8.578;2024-01-30T04:37:31;10.68;;;4.20;;
12088;SDS011;6107;49.078;8.578;2024-01-30T04:39:56;9.70;;;4.07;;
12088;SDS011;6107;49.078;8.578;2024-01-30T04:42:22;9.82;;;4.70;;
12088;SDS011;6107;49.078;8.578;2024-01-30T04:44:48;7.68;;;3.97;;
12088;SDS011;6107;49.078;8.578;2024-01-30T04:47:13;13.25;;;4.60;;
12088;SDS011;6107;49.078;8.578;2024-01-30T04:49:39;10.95;;;4.82;;
12088;SDS011;6107;49.078;8.578;2024-01-30T04:52:05;8.52;;;4.30;;
12088;SDS011;6107;49.078;8.578;2024-01-30T04:54:31;10.32;;;5.25;;
12088;SDS011;6107;49.078;8.578;2024-01-30T04:56:57;10.40;;;4.43;;
12088;SDS011;6107;49.078;8.578;2024-01-30T04:59:23;10.00;;;4.70;;
12088;SDS011;6107;49.078;8.578;2024-01-30T05:01:49;7.53;;;4.38;;
12088;SDS011;6107;49.078;8.578;2024-01-30T05:04:14;7.25;;;4.10;;
12088;SDS011;6107;49.078;8.578;2024-01-30T05:06:40;8.95;;;4.40;;
12088;SDS011;6107;49.078;8.578;2024-01-30T05:09:06;17.13;;;5.13;;
12088;SDS011;6107;49.078;8.578;2024-01-30T05:11:36;11.93;;;4.85;;
12088;SDS011;6107;49.078;8.578;2024-01-30T05:14:03;8.60;;;3.90;;
12088;SDS011;6107;49.078;8.578;2024-01-30T05:16:28;8.88;;;5.13;;
12088;SDS011;6107;49.078;8.578;2024-01-30T05:18:54;10.10;;;4.55;;
12088;SDS011;6107;49.078;8.578;2024-01-30T05:21:19;7.57;;;4.40;;
12088;SDS011;6107;49.078;8.578;2024-01-30T05:23:45;9.82;;;4.60;;
12088;SDS011;6107;49.078;8.578;2024-01-30T05:26:11;8.02;;;4.43;;
12088;SDS011;6107;49.078;8.578;2024-01-30T05:28:36;15.40;;;5.93;;
12088;SDS011;6107;49.078;8.578;2024-01-30T05:31:02;9.93;;;4.72;;
12088;SDS011;6107;49.078;8.578;2024-01-30T05:33:28;11.55;;;5.00;;
12088;SDS011;6107;49.078;8.578;2024-01-30T05:35:54;10.75;;;5.45;;
12088;SDS011;6107;49.078;8.578;2024-01-30T05:38:19;9.48;;;4.90;;
12088;SDS011;6107;49.078;8.578;2024-01-30T05:40:45;10.05;;;4.78;;
12088;SDS011;6107;49.078;8.578;2024-01-30T05:43:11;12.48;;;5.03;;
12088;SDS011;6107;49.078;8.578;2024-01-30T05:45:36;15.90;;;6.18;;
12088;SDS011;6107;49.078;8.578;2024-01-30T05:48:02;14.85;;;6.38;;
12088;SDS011;6107;49.078;8.578;2024-01-30T05:50:28;25.20;;;7.93;;
12088;SDS011;6107;49.078;8.578;2024-01-30T05:52:54;11.20;;;4.88;;
12088;SDS011;6107;49.078;8.578;2024-01-30T05:55:19;12.32;;;4.80;;
12088;SDS011;6107;49.078;8.578;2024-01-30T05:57:45;9.85;;;4.57;;
12088;SDS011;6107;49.078;8.578;2024-01-30T06:00:11;7.22;;;4.10;;
12088;SDS011;6107;49.078;8.578;2024-01-30T06:02:36;12.02;;;5.45;;
12088;SDS011;6107;49.078;8.578;2024-01-30T06:05:02;8.75;;;4.13;;
12088;SDS011;6107;49.078;8.578;2024-01-30T06:07:28;9.88;;;4.13;;
12088;SDS011;6107;49.078;8.578;2024-01-30T06:09:53;7.38;;;4.35;;
12088;SDS011;6107;49.078;8.578;2024-01-30T06:12:19;12.07;;;5.05;;
12088;SDS011;6107;49.078;8.578;2024-01-30T06:14:44;10.40;;;4.35;;
12088;SDS011;6107;49.078;8.578;2024-01-30T06:17:10;9.85;;;5.50;;
12088;SDS011;6107;49.078;8.578;2024-01-30T06:19:37;12.55;;;5.20;;
12088;SDS011;6107;49.078;8.578;2024-01-30T06:22:06;11.15;;;5.45;;
12088;SDS011;6107;49.078;8.578;2024-01-30T06:24:31;11.50;;;5.30;;
12088;SDS011;6107;49.078;8.578;2024-01-30T06:26:58;9.90;;;4.88;;
12088;SDS011;6107;49.078;8.578;2024-01-30T06:29:24;9.50;;;4.55;;
12088;SDS011;6107;49.078;8.578;2024-01-30T06:31:51;10.63;;;4.53;;
12088;SDS011;6107;49.078;8.578;2024-01-30T06:34:17;7.18;;;4.38;;
12088;SDS011;6107;49.078;8.578;2024-01-30T06:36:42;12.57;;;4.93;;
12088;SDS011;6107;49.078;8.578;2024-01-30T06:39:08;7.05;;;3.75;;
12088;SDS011;6107;49.078;8.578;2024-01-30T06:41:34;10.57;;;5.18;;
12088;SDS011;6107;49.078;8.578;2024-01-30T06:44:01;11.45;;;4.60;;
12088;SDS011;6107;49.078;8.578;2024-01-30T06:46:29;11.52;;;5.28;;
12088;SDS011;6107;49.078;8.578;2024-01-30T06:48:54;17.33;;;7.22;;
12088;SDS011;6107;49.078;8.578;2024-01-30T06:51:21;17.65;;;6.78;;
12088;SDS011;6107;49.078;8.578;2024-01-30T06:53:47;9.35;;;4.85;;
12088;SDS011;6107;49.078;8.578;2024-01-30T06:56:12;10.93;;;5.45;;
12088;SDS011;6107;49.078;8.578;2024-01-30T06:58:38;7.25;;;4.07;;
12088;SDS011;6107;49.078;8.578;2024-01-30T07:01:04;9.40;;;4.10;;
12088;SDS011;6107;49.078;8.578;2024-01-30T07:03:29;16.30;;;4.53;;
12088;SDS011;6107;49.078;8.578;2024-01-30T07:05:55;5.68;;;3.70;;
12088;SDS011;6107;49.078;8.578;2024-01-30T07:08:20;8.13;;;3.55;;
12088;SDS011;6107;49.078;8.578;2024-01-30T07:10:47;8.57;;;4.35;;
12088;SDS011;6107;49.078;8.578;2024-01-30T07:13:13;7.28;;;4.05;;
12088;SDS011;6107;49.078;8.578;2024-01-30T07:15:41;6.32;;;3.60;;
12088;SDS011;6107;49.078;8.578;2024-01-30T07:18:07;12.55;;;4.97;;
12088;SDS011;6107;49.078;8.578;2024-01-30T07:20:32;8.52;;;4.25;;
12088;SDS011;6107;49.078;8.578;2024-01-30T07:22:58;9.65;;;4.28;;
12088;SDS011;6107;49.078;8.578;2024-01-30T07:25:24;15.60;;;5.63;;
12088;SDS011;6107;49.078;8.578;2024-01-30T07:27:53;14.02;;;6.85;;
12088;SDS011;6107;49.078;8.578;2024-01-30T07:30:19;8.70;;;4.28;;
12088;SDS011;6107;49.078;8.578;2024-01-30T07:32:45;8.98;;;4.10;;
12088;SDS011;6107;49.078;8.578;2024-01-30T07:35:12;9.10;;;4.07;;
12088;SDS011;6107;49.078;8.578;2024-01-30T07:37:38;10.70;;;4.88;;
12088;SDS011;6107;49.078;8.578;2024-01-30T07:40:03;7.65;;;3.30;;
12088;SDS011;6107;49.078;8.578;2024-01-30T07:42:30;7.25;;;3.60;;
12088;SDS011;6107;49.078;8.578;2024-01-30T07:44:55;9.95;;;4.10;;
12088;SDS011;6107;49.078;8.578;2024-01-30T07:47:21;8.13;;;4.30;;
12088;SDS011;6107;49.078;8.578;2024-01-30T07:49:46;8.18;;;4.13;;
12088;SDS011;6107;49.078;8.578;2024-01-30T07:52:12;9.05;;;4.55;;
12088;SDS011;6107;49.078;8.578;2024-01-30T07:54:38;10.43;;;3.58;;
12088;SDS011;6107;49.078;8.578;2024-01-30T07:57:04;10.82;;;3.85;;
12088;SDS011;6107;49.078;8.578;2024-01-30T07:59:29;7.10;;;3.65;;
12088;SDS011;6107;49.078;8.578;2024-01-30T08:01:55;9.98;;;4.30;;
12088;SDS011;6107;49.078;8.578;2024-01-30T08:04:21;13.45;;;5.13;;
12088;SDS011;6107;49.078;8.578;2024-01-30T08:06:46;13.02;;;5.38;;
12088;SDS011;6107;49.078;8.578;2024-01-30T08:09:12;10.30;;;4.90;;
12088;SDS011;6107;49.078;8.578;2024-01-30T08:11:37;14.48;;;6.85;;
12088;SDS011;6107;49.078;8.578;2024-01-30T08:14:04;16.75;;;8.18;;
12088;SDS011;6107;49.078;8.578;2024-01-30T08:16:39;19.33;;;9.40;;
12088;SDS011;6107;49.078;8.578;2024-01-30T08:19:05;18.77;;;8.57;;
12088;SDS011;6107;49.078;8.578;2024-01-30T08:21:30;26.30;;;10.55;;
12088;SDS011;6107;49.078;8.578;2024-01-30T08:24:01;21.67;;;9.70;;
12088;SDS011;6107;49.078;8.578;2024-01-30T08:26:29;19.58;;;9.27;;
12088;SDS011;6107;49.078;8.578;2024-01-30T08:28:56;16.75;;;8.57;;
12088;SDS011;6107;49.078;8.578;2024-01-30T08:31:21;24.75;;;10.77;;
12088;SDS011;6107;49.078;8.578;2024-01-30T08:33:47;22.58;;;10.75;;
12088;SDS011;6107;49.078;8.578;2024-01-30T08:36:12;28.25;;;11.77;;
12088;SDS011;6107;49.078;8.578;2024-01-30T08:38:38;26.17;;;11.07;;
12088;SDS011;6107;49.078;8.578;2024-01-30T08:41:04;24.30;;;11.80;;
12088;SDS011;6107;49.078;8.578;2024-01-30T08:43:30;25.65;;;11.93;;
12088;SDS011;6107;49.078;8.578;2024-01-30T08:45:58;23.55;;;10.88;;
12088;SDS011;6107;49.078;8.578;2024-01-30T08:48:27;21.33;;;11.70;;
12088;SDS011;6107;49.078;8.578;2024-01-30T08:50:53;34.83;;;12.65;;
12088;SDS011;6107;49.078;8.578;2024-01-30T08:53:18;39.83;;;18.38;;
12088;SDS011;6107;49.078;8.578;2024-01-30T08:55:44;31.35;;;15.38;;
12088;SDS011;6107;49.078;8.578;2024-01-30T08:58:10;31.30;;;13.45;;
12088;SDS011;6107;49.078;8.578;2024-01-30T09:00:36;31.40;;;15.13;;
12088;SDS011;6107;49.078;8.578;2024-01-30T09:03:03;35.80;;;17.25;;
12088;SDS011;6107;49.078;8.578;2024-01-30T09:05:28;36.53;;;18.13;;
12088;SDS011;6107;49.078;8.578;2024-01-30T09:07:54;31.33;;;12.85;;
12088;SDS011;6107;49.078;8.578;2024-01-30T09:10:20;38.83;;;18.13;;
12088;SDS011;6107;49.078;8.578;2024-01-30T09:12:46;31.77;;;14.35;;
12088;SDS011;6107;49.078;8.578;2024-01-30T09:15:12;25.92;;;12.55;;
12088;SDS011;6107;49.078;8.578;2024-01-30T09:17:38;38.33;;;16.52;;
12088;SDS011;6107;49.078;8.578;2024-01-30T09:20:04;36.78;;;16.75;;
12088;SDS011;6107;49.078;8.578;2024-01-30T09:22:30;34.67;;;15.82;;
12088;SDS011;6107;49.078;8.578;2024-01-30T09:24:56;34.33;;;15.57;;
12088;SDS011;6107;49.078;8.578;2024-01-30T09:27:22;30.48;;;15.50;;
12088;SDS011;6107;49.078;8.578;2024-01-30T09:29:47;26.77;;;14.50;;
12088;SDS011;6107;49.078;8.578;2024-01-30T09:32:13;29.75;;;14.55;;
12088;SDS011;6107;49.078;8.578;2024-01-30T09:34:39;29.17;;;13.70;;
12088;SDS011;6107;49.078;8.578;2024-01-30T09:37:04;27.52;;;14.88;;
12088;SDS011;6107;49.078;8.578;2024-01-30T09:39:30;31.23;;;15.60;;
12088;SDS011;6107;49.078;8.578;2024-01-30T09:42:00;48.55;;;22.52;;
12088;SDS011;6107;49.078;8.578;2024-01-30T09:44:33;49.40;;;21.35;;
12088;SDS011;6107;49.078;8.578;2024-01-30T09:47:01;46.08;;;23.08;;
12088;SDS011;6107;49.078;8.578;2024-01-30T09:49:29;55.35;;;24.60;;
12088;SDS011;6107;49.078;8.578;2024-01-30T09:51:59;48.83;;;21.30;;
12088;SDS011;6107;49.078;8.578;2024-01-30T09:54:25;28.88;;;14.88;;
12088;SDS011;6107;49.078;8.578;2024-01-30T09:56:50;35.78;;;14.13;;
12088;SDS011;6107;49.078;8.578;2024-01-30T09:59:16;23.67;;;10.40;;
12088;SDS011;6107;49.078;8.578;2024-01-30T10:01:42;25.15;;;11.65;;
12088;SDS011;6107;49.078;8.578;2024-01-30T10:04:08;38.33;;;16.17;;
12088;SDS011;6107;49.078;8.578;2024-01-30T10:06:34;40.38;;;18.02;;
12088;SDS011;6107;49.078;8.578;2024-01-30T10:08:59;16.25;;;9.43;;
12088;SDS011;6107;49.078;8.578;2024-01-30T10:11:25;16.58;;;8.50;;
12088;SDS011;6107;49.078;8.578;2024-01-30T10:13:51;16.40;;;8.30;;
12088;SDS011;6107;49.078;8.578;2024-01-30T10:16:16;17.42;;;8.82;;
12088;SDS011;6107;49.078;8.578;2024-01-30T10:18:42;21.02;;;8.60;;
12088;SDS011;6107;49.078;8.578;2024-01-30T10:21:11;18.77;;;9.23;;
12088;SDS011;6107;49.078;8.578;2024-01-30T10:23:38;19.77;;;9.30;;
12088;SDS011;6107;49.078;8.578;2024-01-30T10:26:04;24.35;;;11.77;;
12088;SDS011;6107;49.078;8.578;2024-01-30T10:28:30;24.58;;;10.80;;
12088;SDS011;6107;49.078;8.578;2024-01-30T10:30:59;20.45;;;10.77;;
12088;SDS011;6107;49.078;8.578;2024-01-30T10:33:26;29.55;;;13.30;;
12088;SDS011;6107;49.078;8.578;2024-01-30T10:35:53;32.38;;;14.35;;
12088;SDS011;6107;49.078;8.578;2024-01-30T10:38:25;40.47;;;16.70;;
12088;SDS011;6107;49.078;8.578;2024-01-30T10:40:55;41.50;;;17.80;;
12088;SDS011;6107;49.078;8.578;2024-01-30T10:43:22;53.45;;;23.67;;
12088;SDS011;6107;49.078;8.578;2024-01-30T10:45:49;43.38;;;20.83;;
12088;SDS011;6107;49.078;8.578;2024-01-30T10:48:18;50.40;;;23.88;;
12088;SDS011;6107;49.078;8.578;2024-01-30T10:50:47;29.08;;;15.00;;
12088;SDS011;6107;49.078;8.578;2024-01-30T10:53:15;40.67;;;17.58;;
12088;SDS011;6107;49.078;8.578;2024-01-30T10:55:42;34.97;;;14.25;;
12088;SDS011;6107;49.078;8.578;2024-01-30T10:58:10;47.83;;;18.85;;
12088;SDS011;6107;49.078;8.578;2024-01-30T11:00:36;38.67;;;18.13;;
12088;SDS011;6107;49.078;8.578;2024-01-30T11:03:04;32.05;;;13.65;;
12088;SDS011;6107;49.078;8.578;2024-01-30T11:05:30;31.65;;;13.68;;
12088;SDS011;6107;49.078;8.578;2024-01-30T11:07:55;20.58;;;10.93;;
12088;SDS011;6107;49.078;8.578;2024-01-30T11:10:21;26.98;;;11.27;;
12088;SDS011;6107;49.078;8.578;2024-01-30T11:12:50;15.90;;;8.40;;
12088;SDS011;6107;49.078;8.578;2024-01-30T11:15:16;18.70;;;9.32;;
12088;SDS011;6107;49.078;8.578;2024-01-30T11:17:42;20.02;;;8.43;;
12088;SDS011;6107;49.078;8.578;2024-01-30T11:20:15;22.92;;;9.45;;
12088;SDS011;6107;49.078;8.578;2024-01-30T11:22:46;29.52;;;11.75;;
12088;SDS011;6107;49.078;8.578;2024-01-30T11:25:14;24.05;;;10.63;;
12088;SDS011;6107;49.078;8.578;2024-01-30T11:27:42;23.27;;;11.23;;
12088;SDS011;6107;49.078;8.578;2024-01-30T11:30:08;21.98;;;8.80;;
12088;SDS011;6107;49.078;8.578;2024-01-30T11:32:34;14.38;;;7.00;;
12088;SDS011;6107;49.078;8.578;2024-01-30T11:35:02;13.65;;;6.60;;
12088;SDS011;6107;49.078;8.578;2024-01-30T11:37:30;12.93;;;7.00;;
12088;SDS011;6107;49.078;8.578;2024-01-30T11:39:57;13.75;;;7.15;;
12088;SDS011;6107;49.078;8.578;2024-01-30T11:42:24;14.05;;;6.93;;
12088;SDS011;6107;49.078;8.578;2024-01-30T11:44:50;16.10;;;8.95;;
12088;SDS011;6107;49.078;8.578;2024-01-30T11:47:16;14.30;;;8.65;;
12088;SDS011;6107;49.078;8.578;2024-01-30T11:49:43;14.48;;;7.72;;
12088;SDS011;6107;49.078;8.578;2024-01-30T11:52:09;15.25;;;7.85;;
12088;SDS011;6107;49.078;8.578;2024-01-30T11:54:39;16.75;;;8.15;;
12088;SDS011;6107;49.078;8.578;2024-01-30T11:57:05;15.25;;;6.60;;
12088;SDS011;6107;49.078;8.578;2024-01-30T11:59:30;13.45;;;5.88;;
12088;SDS011;6107;49.078;8.578;2024-01-30T12:01:56;14.23;;;5.65;;
12088;SDS011;6107;49.078;8.578;2024-01-30T12:04:21;12.75;;;6.05;;
12088;SDS011;6107;49.078;8.578;2024-01-30T12:06:50;10.82;;;5.70;;
12088;SDS011;6107;49.078;8.578;2024-01-30T12:09:16;9.80;;;4.97;;
12088;SDS011;6107;49.078;8.578;2024-01-30T12:11:45;14.55;;;5.72;;
12088;SDS011;6107;49.078;8.578;2024-01-30T12:14:12;16.08;;;6.50;;
12088;SDS011;6107;49.078;8.578;2024-01-30T12:16:38;10.68;;;5.55;;
12088;SDS011;6107;49.078;8.578;2024-01-30T12:19:04;13.00;;;6.78;;
12088;SDS011;6107;49.078;8.578;2024-01-30T12:21:30;13.20;;;6.55;;
12088;SDS011;6107;49.078;8.578;2024-01-30T12:23:59;11.85;;;6.65;;
12088;SDS011;6107;49.078;8.578;2024-01-30T12:26:25;13.25;;;6.50;;
12088;SDS011;6107;49.078;8.578;2024-01-30T12:28:55;11.38;;;6.57;;
12088;SDS011;6107;49.078;8.578;2024-01-30T12:31:31;15.52;;;7.13;;
12088;SDS011;6107;49.078;8.578;2024-01-30T12:34:01;13.68;;;7.03;;
12088;SDS011;6107;49.078;8.578;2024-01-30T12:36:28;13.23;;;6.88;;
12088;SDS011;6107;49.078;8.578;2024-01-30T12:39:27;15.70;;;7.35;;
12088;SDS011;6107;49.078;8.578;2024-01-30T12:42:29;12.40;;;6.90;;
12088;SDS011;6107;49.078;8.578;2024-01-30T12:45:38;16.23;;;6.53;;
12088;SDS011;6107;49.078;8.578;2024-01-30T12:48:41;11.57;;;6.60;;
12088;SDS011;6107;49.078;8.578;2024-01-30T12:51:09;12.45;;;6.80;;
12088;SDS011;6107;49.078;8.578;2024-01-30T12:53:35;12.10;;;6.85;;
12088;SDS011;6107;49.078;8.578;2024-01-30T12:56:01;12.65;;;6.75;;
12088;SDS011;6107;49.078;8.578;2024-01-30T12:58:26;13.02;;;7.25;;
12088;SDS011;6107;49.078;8.578;2024-01-30T13:00:52;14.30;;;7.25;;
12088;SDS011;6107;49.078;8.578;2024-01-30T13:03:19;16.85;;;7.20;;
12088;SDS011;6107;49.078;8.578;2024-01-30T13:05:45;15.55;;;6.93;;
12088;SDS011;6107;49.078;8.578;2024-01-30T13:08:10;17.73;;;7.63;;
12088;SDS011;6107;49.078;8.578;2024-01-30T13:10:36;15.27;;;6.40;;
12088;SDS011;6107;49.078;8.578;2024-01-30T13:13:01;13.43;;;6.97;;
12088;SDS011;6107;49.078;8.578;2024-01-30T13:15:27;16.67;;;7.47;;
12088;SDS011;6107;49.078;8.578;2024-01-30T13:17:53;14.52;;;7.70;;
12088;SDS011;6107;49.078;8.578;2024-01-30T13:20:19;15.43;;;7.03;;
12088;SDS011;6107;49.078;8.578;2024-01-30T13:22:47;13.70;;;7.25;;
12088;SDS011;6107;49.078;8.578;2024-01-30T13:25:14;18.88;;;7.07;;
12088;SDS011;6107;49.078;8.578;2024-01-30T13:27:40;13.32;;;7.78;;
12088;SDS011;6107;49.078;8.578;2024-01-30T13:30:06;15.60;;;7.28;;
12088;SDS011;6107;49.078;8.578;2024-01-30T13:32:34;13.38;;;7.05;;
12088;SDS011;6107;49.078;8.578;2024-01-30T13:34:59;13.73;;;7.70;;
12088;SDS011;6107;49.078;8.578;2024-01-30T13:37:25;13.35;;;7.70;;
12088;SDS011;6107;49.078;8.578;2024-01-30T13:39:51;15.40;;;7.40;;
12088;SDS011;6107;49.078;8.578;2024-01-30T13:42:16;16.05;;;8.45;;
12088;SDS011;6107;49.078;8.578;2024-01-30T13:44:42;13.30;;;7.63;;
12088;SDS011;6107;49.078;8.578;2024-01-30T13:47:09;17.98;;;8.35;;
12088;SDS011;6107;49.078;8.578;2024-01-30T13:49:34;16.10;;;8.02;;
12088;SDS011;6107;49.078;8.578;2024-01-30T13:52:00;18.52;;;8.13;;
12088;SDS011;6107;49.078;8.578;2024-01-30T13:54:26;15.00;;;8.52;;
12088;SDS011;6107;49.078;8.578;2024-01-30T13:56:51;19.15;;;9.32;;
12088;SDS011;6107;49.078;8.578;2024-01-30T13:59:17;18.25;;;9.27;;
12088;SDS011;6107;49.078;8.578;2024-01-30T14:01:48;18.05;;;8.93;;
12088;SDS011;6107;49.078;8.578;2024-01-30T14:04:14;19.15;;;8.60;;
12088;SDS011;6107;49.078;8.578;2024-01-30T14:06:39;16.40;;;8.98;;
12088;SDS011;6107;49.078;8.578;2024-01-30T14:09:05;19.70;;;9.32;;
12088;SDS011;6107;49.078;8.578;2024-01-30T14:11:31;18.75;;;10.00;;
12088;SDS011;6107;49.078;8.578;2024-01-30T14:13:57;18.75;;;9.27;;
12088;SDS011;6107;49.078;8.578;2024-01-30T14:16:22;16.05;;;8.98;;
12088;SDS011;6107;49.078;8.578;2024-01-30T14:18:49;24.52;;;9.43;;
12088;SDS011;6107;49.078;8.578;2024-01-30T14:21:15;18.58;;;9.10;;
12088;SDS011;6107;49.078;8.578;2024-01-30T14:23:40;17.95;;;9.13;;
12088;SDS011;6107;49.078;8.578;2024-01-30T14:26:06;14.05;;;9.07;;
12088;SDS011;6107;49.078;8.578;2024-01-30T14:28:32;17.33;;;9.88;;
12088;SDS011;6107;49.078;8.578;2024-01-30T14:30:57;18.95;;;10.27;;
12088;SDS011;6107;49.078;8.578;2024-01-30T14:33:23;17.10;;;9.38;;
12088;SDS011;6107;49.078;8.578;2024-01-30T14:35:48;18.58;;;9.00;;
12088;SDS011;6107;49.078;8.578;2024-01-30T14:38:14;18.35;;;8.50;;
12088;SDS011;6107;49.078;8.578;2024-01-30T14:40:41;16.85;;;8.20;;
12088;SDS011;6107;49.078;8.578;2024-01-30T14:43:07;18.48;;;8.80;;